createdAt,value
2023-04-18T00:00:23.684Z,9.05
2023-04-18T00:02:54.111Z,9.04
2023-04-18T00:05:22.372Z,9.03
2023-04-18T00:07:51.561Z,9.00
2023-04-18T00:10:19.901Z,8.97
2023-04-18T00:12:47.673Z,8.92
2023-04-18T00:15:16.018Z,8.91
2023-04-18T00:17:44.076Z,8.92
2023-04-18T00:20:12.812Z,8.91
2023-04-18T00:22:42.578Z,8.93
2023-04-18T00:25:10.721Z,8.93
2023-04-18T00:27:39.092Z,8.93
2023-04-18T00:30:08.053Z,8.93
2023-04-18T00:32:38.741Z,8.91
2023-04-18T00:35:06.743Z,8.88
2023-04-18T00:37:34.675Z,8.84
2023-04-18T00:40:03.074Z,8.80
2023-04-18T00:42:31.949Z,8.77
2023-04-18T00:44:59.731Z,8.73
2023-04-18T00:47:27.553Z,8.72
2023-04-18T00:49:56.736Z,8.71
2023-04-18T00:52:24.605Z,8.69
2023-04-18T00:54:54.454Z,8.67
2023-04-18T00:57:22.244Z,8.64
2023-04-18T00:59:50.192Z,8.63
2023-04-18T01:02:19.356Z,8.64
2023-04-18T01:04:47.231Z,8.65
2023-04-18T01:07:15.300Z,8.63
2023-04-18T01:09:43.020Z,8.59
2023-04-18T01:12:10.867Z,8.56
2023-04-18T01:14:41.379Z,8.50
2023-04-18T01:17:10.739Z,8.49
2023-04-18T01:19:39.576Z,8.46
2023-04-18T01:22:08.547Z,8.47
2023-04-18T01:24:36.364Z,8.45
2023-04-18T01:27:04.537Z,8.41
2023-04-18T01:29:34.823Z,8.41
2023-04-18T01:32:02.829Z,8.41
2023-04-18T01:34:30.873Z,8.36
2023-04-18T01:36:59.396Z,8.35
2023-04-18T01:39:27.227Z,8.35
2023-04-18T01:41:55.166Z,8.34
2023-04-18T01:44:22.973Z,8.31
2023-04-18T01:46:50.865Z,8.29
2023-04-18T01:49:18.629Z,8.27
2023-04-18T01:51:46.656Z,8.23
2023-04-18T01:54:15.498Z,8.20
2023-04-18T01:56:43.667Z,8.18
2023-04-18T01:59:11.667Z,8.18
2023-04-18T02:01:40.452Z,8.18
2023-04-18T02:04:08.593Z,8.13
2023-04-18T02:06:36.853Z,8.16
2023-04-18T02:09:05.053Z,8.14
2023-04-18T02:11:33.346Z,8.12
2023-04-18T02:14:04.103Z,8.10
2023-04-18T02:16:32.476Z,8.06
2023-04-18T02:19:00.367Z,8.04
2023-04-18T02:21:30.391Z,8.04
2023-04-18T02:23:58.142Z,8.02
2023-04-18T02:26:26.152Z,7.99
2023-04-18T02:28:58.855Z,7.97
2023-04-18T02:31:26.914Z,7.97
2023-04-18T02:33:54.736Z,7.95
2023-04-18T02:36:23.360Z,7.94
2023-04-18T02:38:51.076Z,7.94
2023-04-18T02:41:21.690Z,7.96
2023-04-18T02:43:49.455Z,7.96
2023-04-18T02:46:17.825Z,7.93
2023-04-18T02:48:47.858Z,7.93
2023-04-18T02:51:16.452Z,7.94
2023-04-18T02:53:44.210Z,7.94
2023-04-18T02:56:14.926Z,7.94
2023-04-18T02:59:06.952Z,7.93
2023-04-18T03:01:46.355Z,7.93
2023-04-18T03:04:17.287Z,7.92
2023-04-18T03:06:53.424Z,7.97
2023-04-18T03:09:22.451Z,7.98
2023-04-18T03:11:53.724Z,7.97
2023-04-18T03:14:24.569Z,7.97
2023-04-18T03:16:55.592Z,7.96
2023-04-18T03:19:26.664Z,7.95
2023-04-18T03:21:55.280Z,7.91
2023-04-18T03:24:23.292Z,7.93
2023-04-18T03:26:52.432Z,7.97
2023-04-18T03:29:22.063Z,7.99
2023-04-18T03:31:49.972Z,8.02
2023-04-18T03:34:18.175Z,8.03
2023-04-18T03:36:47.960Z,8.04
2023-04-18T03:39:16.339Z,8.05
2023-04-18T03:41:44.664Z,8.06
2023-04-18T03:44:12.922Z,8.06
2023-04-18T03:46:42.080Z,8.06
2023-04-18T03:49:10.490Z,8.06
2023-04-18T03:51:42.492Z,8.05
2023-04-18T03:54:10.279Z,8.05
2023-04-18T03:56:38.585Z,8.06
2023-04-18T03:59:06.408Z,8.13
2023-04-18T04:01:34.569Z,8.20
2023-04-18T04:04:03.249Z,8.24
2023-04-18T04:06:32.438Z,8.25
2023-04-18T04:09:01.482Z,8.26
2023-04-18T04:11:30.168Z,8.28
2023-04-18T04:13:58.236Z,8.30
2023-04-18T04:16:30.146Z,8.32
2023-04-18T04:18:58.176Z,8.33
2023-04-18T04:21:31.352Z,8.34
2023-04-18T04:23:59.435Z,8.35
2023-04-18T04:26:31.788Z,8.37
2023-04-18T04:29:05.493Z,8.37
2023-04-18T04:31:34.821Z,8.38
2023-04-18T04:34:03.634Z,8.41
2023-04-18T04:36:33.491Z,8.41
2023-04-18T04:39:04.243Z,8.41
2023-04-18T04:41:47.271Z,8.41
2023-04-18T04:44:17.679Z,8.40
2023-04-18T04:46:45.547Z,8.40
2023-04-18T04:49:18.650Z,8.42
2023-04-18T04:51:46.421Z,8.44
2023-04-18T04:54:14.482Z,8.46
2023-04-18T04:56:42.719Z,8.47
2023-04-18T04:59:11.147Z,8.48
2023-04-18T05:01:45.095Z,8.52
2023-04-18T05:04:13.376Z,8.56
2023-04-18T05:06:42.097Z,8.57
2023-04-18T05:09:09.918Z,8.59
2023-04-18T05:11:37.882Z,8.63
2023-04-18T05:14:05.709Z,8.66
2023-04-18T05:16:35.886Z,8.66
2023-04-18T05:19:03.856Z,8.67
2023-04-18T05:21:32.855Z,8.67
2023-04-18T05:24:00.843Z,8.67
2023-04-18T05:26:28.789Z,8.66
2023-04-18T05:28:56.561Z,8.69
2023-04-18T05:31:24.334Z,8.73
2023-04-18T05:33:52.403Z,8.74
2023-04-18T05:36:20.341Z,8.77
2023-04-18T05:38:48.189Z,8.80
2023-04-18T05:41:15.933Z,8.85
2023-04-18T05:43:48.244Z,8.89
2023-04-18T05:46:22.361Z,8.96
2023-04-18T05:48:50.145Z,9.02
2023-04-18T05:51:17.887Z,9.08
2023-04-18T05:53:45.693Z,9.13
2023-04-18T05:56:13.483Z,9.17
2023-04-18T05:58:41.331Z,9.21
2023-04-18T06:01:09.729Z,9.27
2023-04-18T06:03:37.788Z,9.33
2023-04-18T06:06:07.716Z,9.39
2023-04-18T06:08:36.162Z,9.45
2023-04-18T06:11:04.092Z,9.49
2023-04-18T06:13:32.149Z,9.56
2023-04-18T06:16:00.367Z,9.61
2023-04-18T06:18:28.258Z,9.66
2023-04-18T06:20:56.216Z,9.71
2023-04-18T06:23:24.372Z,9.74
2023-04-18T06:25:52.156Z,9.77
2023-04-18T06:28:20.399Z,9.79
2023-04-18T06:30:48.196Z,9.82
2023-04-18T06:33:16.674Z,9.88
2023-04-18T06:35:44.488Z,9.94
2023-04-18T06:38:12.465Z,10.00
2023-04-18T06:40:40.255Z,10.06
2023-04-18T06:43:08.118Z,10.12
2023-04-18T06:45:36.099Z,10.20
2023-04-18T06:48:04.005Z,10.25
2023-04-18T06:50:32.071Z,10.30
2023-04-18T06:52:59.852Z,10.33
2023-04-18T06:55:27.729Z,10.38
2023-04-18T06:57:55.855Z,10.45
2023-04-18T07:00:23.870Z,10.49
2023-04-18T07:02:51.868Z,10.55
2023-04-18T07:05:20.177Z,10.58
2023-04-18T07:07:48.378Z,10.62
2023-04-18T07:10:16.505Z,10.67
2023-04-18T07:12:44.560Z,10.73
2023-04-18T07:15:13.802Z,10.78
2023-04-18T07:17:41.913Z,10.83
2023-04-18T07:20:12.344Z,10.86
2023-04-18T07:22:41.865Z,10.90
2023-04-18T07:25:09.591Z,10.98
2023-04-18T07:27:37.609Z,11.04
2023-04-18T07:30:05.822Z,11.12
2023-04-18T07:32:34.049Z,11.19
2023-04-18T07:35:02.247Z,11.27
2023-04-18T07:37:30.299Z,11.34
2023-04-18T07:39:58.606Z,11.41
2023-04-18T07:42:26.419Z,11.50
2023-04-18T07:44:58.740Z,11.55
2023-04-18T07:47:29.626Z,11.62
2023-04-18T07:49:58.396Z,11.68
2023-04-18T07:52:26.382Z,11.73
2023-04-18T07:54:54.304Z,11.81
2023-04-18T07:57:22.258Z,11.86
2023-04-18T07:59:53.753Z,11.93
2023-04-18T08:02:22.052Z,12.00
2023-04-18T08:04:52.157Z,12.08
2023-04-18T08:07:20.446Z,12.15
2023-04-18T08:09:48.399Z,12.24
2023-04-18T08:12:16.415Z,12.35
2023-04-18T08:14:44.230Z,12.48
2023-04-18T08:17:12.169Z,12.64
2023-04-18T08:19:40.238Z,12.81
2023-04-18T08:22:09.168Z,12.93
2023-04-18T08:24:37.917Z,12.98
2023-04-18T08:27:05.669Z,13.00
2023-04-18T08:29:33.698Z,13.02
2023-04-18T08:32:01.545Z,13.03
2023-04-18T08:34:29.862Z,13.01
2023-04-18T08:36:57.629Z,13.02
2023-04-18T08:39:25.723Z,13.04
2023-04-18T08:41:54.218Z,13.07
2023-04-18T08:44:22.853Z,13.11
2023-04-18T08:46:50.812Z,13.17
2023-04-18T08:49:21.672Z,13.18
2023-04-18T08:51:52.546Z,13.18
2023-04-18T08:54:20.923Z,13.24
2023-04-18T08:57:03.644Z,13.28
2023-04-18T08:59:32.450Z,13.35
2023-04-18T09:02:01.664Z,13.38
2023-04-18T09:04:34.370Z,13.38
2023-04-18T09:07:02.970Z,13.35
2023-04-18T09:09:40.281Z,13.35
2023-04-18T09:12:08.857Z,13.37
2023-04-18T09:14:37.341Z,13.39
2023-04-18T09:17:06.425Z,13.40
2023-04-18T09:19:34.773Z,13.42
2023-04-18T09:22:02.761Z,13.43
2023-04-18T09:24:31.957Z,13.42
2023-04-18T09:27:01.247Z,13.41
2023-04-18T09:29:42.227Z,13.42
2023-04-18T09:32:09.985Z,13.37
2023-04-18T09:34:41.728Z,13.39
2023-04-18T09:37:10.435Z,13.38
2023-04-18T09:39:39.230Z,13.34
2023-04-18T09:42:07.998Z,13.32
2023-04-18T09:44:36.305Z,13.34
2023-04-18T09:47:05.548Z,13.33
2023-04-18T09:49:33.472Z,13.31
2023-04-18T09:52:01.253Z,13.31
2023-04-18T09:54:29.284Z,13.30
2023-04-18T09:56:58.844Z,13.34
2023-04-18T09:59:32.865Z,13.35
2023-04-18T10:02:02.432Z,13.39
2023-04-18T10:04:30.902Z,13.43
2023-04-18T10:06:59.099Z,13.42
2023-04-18T10:09:29.918Z,13.39
2023-04-18T10:11:58.627Z,13.37
2023-04-18T10:14:28.031Z,13.33
2023-04-18T10:16:57.385Z,13.32
2023-04-18T10:19:26.159Z,13.34
2023-04-18T10:21:58.055Z,13.39
2023-04-18T10:24:44.702Z,13.44
2023-04-18T10:27:12.422Z,13.46
2023-04-18T10:29:50.262Z,13.50
2023-04-18T10:32:18.766Z,13.54
2023-04-18T10:34:47.354Z,13.52
2023-04-18T10:37:15.375Z,13.52
2023-04-18T10:39:55.340Z,13.52
2023-04-18T10:42:49.593Z,13.53
2023-04-18T10:45:18.654Z,13.49
2023-04-18T10:47:46.621Z,13.44
2023-04-18T10:50:14.818Z,13.42
2023-04-18T10:52:43.506Z,13.43
2023-04-18T10:55:13.355Z,13.42
2023-04-18T10:57:44.894Z,13.39
2023-04-18T11:00:14.015Z,13.38
2023-04-18T11:02:47.907Z,13.37
2023-04-18T11:05:34.047Z,13.37
2023-04-18T11:08:02.490Z,13.37
2023-04-18T11:10:30.492Z,13.38
2023-04-18T11:13:04.537Z,13.38
2023-04-18T11:15:32.424Z,13.36
2023-04-18T11:18:01.531Z,13.34
2023-04-18T11:20:30.000Z,13.33
2023-04-18T11:22:58.793Z,13.33
2023-04-18T11:25:30.318Z,13.33
2023-04-18T11:27:58.640Z,13.31
2023-04-18T11:30:26.386Z,13.29
2023-04-18T11:32:55.070Z,13.28
2023-04-18T11:35:23.031Z,13.27
2023-04-18T11:37:51.460Z,13.23
2023-04-18T11:40:19.260Z,13.21
2023-04-18T11:42:47.009Z,13.19
2023-04-18T11:45:15.048Z,13.17
2023-04-18T11:47:43.215Z,13.12
2023-04-18T11:50:11.985Z,13.04
2023-04-18T11:52:41.137Z,12.94
2023-04-18T11:55:14.797Z,12.89
2023-04-18T11:57:43.257Z,12.82
2023-04-18T12:00:12.607Z,12.76
2023-04-18T12:02:42.609Z,12.66
2023-04-18T12:05:11.988Z,12.58
2023-04-18T12:07:44.552Z,12.48
2023-04-18T12:10:21.548Z,12.39
2023-04-18T12:12:49.606Z,12.30
2023-04-18T12:15:17.924Z,12.21
2023-04-18T12:17:46.760Z,12.13
2023-04-18T12:20:16.104Z,12.03
2023-04-18T12:22:49.569Z,11.93
2023-04-18T12:25:23.569Z,11.86
2023-04-18T12:28:00.603Z,11.78
2023-04-18T12:30:37.384Z,11.71
2023-04-18T12:33:05.578Z,11.64
2023-04-18T12:35:34.066Z,11.58
2023-04-18T12:38:02.090Z,11.55
2023-04-18T12:40:30.513Z,11.49
2023-04-18T12:42:58.283Z,11.45
2023-04-18T12:45:26.315Z,11.41
2023-04-18T12:47:54.134Z,11.41
2023-04-18T12:50:23.215Z,11.41
2023-04-18T12:52:51.602Z,11.43
2023-04-18T12:55:19.442Z,11.43
2023-04-18T12:57:47.311Z,11.44
2023-04-18T13:00:15.264Z,11.44
2023-04-18T13:02:44.395Z,11.44
2023-04-18T13:05:14.488Z,11.43
2023-04-18T13:07:42.882Z,11.38
2023-04-18T13:10:11.843Z,11.33
2023-04-18T13:12:40.237Z,11.25
2023-04-18T13:15:08.586Z,11.17
2023-04-18T13:17:37.660Z,11.13
2023-04-18T13:20:06.852Z,11.03
2023-04-18T13:22:35.018Z,10.94
2023-04-18T13:25:03.216Z,10.87
2023-04-18T13:27:31.191Z,10.78
2023-04-18T13:29:58.946Z,10.72
2023-04-18T13:32:27.076Z,10.67
2023-04-18T13:34:56.094Z,10.61
2023-04-18T13:37:24.085Z,10.58
2023-04-18T13:39:51.837Z,10.56
2023-04-18T13:42:19.957Z,10.53
2023-04-18T13:44:48.124Z,10.53
2023-04-18T13:47:16.032Z,10.52
2023-04-18T13:49:43.787Z,10.52
2023-04-18T13:52:11.550Z,10.51
2023-04-18T13:54:40.200Z,10.50
2023-04-18T13:57:11.697Z,10.50
2023-04-18T13:59:40.585Z,10.49
2023-04-18T14:02:09.046Z,10.47
2023-04-18T14:04:37.208Z,10.45
2023-04-18T14:07:06.429Z,10.41
2023-04-18T14:09:34.558Z,10.39
2023-04-18T14:12:02.358Z,10.37
2023-04-18T14:14:30.866Z,10.34
2023-04-18T14:16:58.622Z,10.26
2023-04-18T14:19:26.660Z,10.06
2023-04-18T14:21:54.720Z,9.83
2023-04-18T14:24:23.086Z,9.65
2023-04-18T14:26:50.864Z,9.52
2023-04-18T14:29:18.993Z,9.45
2023-04-18T14:31:47.122Z,9.43
2023-04-18T14:34:14.934Z,9.42
2023-04-18T14:36:42.696Z,9.43
2023-04-18T14:39:11.068Z,9.43
2023-04-18T14:41:39.099Z,9.41
2023-04-18T14:44:06.912Z,9.40
2023-04-18T14:46:34.758Z,9.42
2023-04-18T14:49:02.564Z,9.43
2023-04-18T14:51:31.188Z,9.37
2023-04-18T14:53:59.128Z,9.35
2023-04-18T14:56:27.322Z,9.35
2023-04-18T14:58:55.259Z,9.33
2023-04-18T15:01:23.312Z,9.31
2023-04-18T15:03:51.702Z,9.32
2023-04-18T15:06:19.750Z,9.33
2023-04-18T15:08:47.931Z,9.34
2023-04-18T15:11:15.731Z,9.31
2023-04-18T15:13:44.582Z,9.28
2023-04-18T15:16:13.036Z,9.27
2023-04-18T15:18:41.171Z,9.28
2023-04-18T15:21:08.950Z,9.26
2023-04-18T15:23:36.695Z,9.25
2023-04-18T15:26:04.942Z,9.24
2023-04-18T15:28:32.933Z,9.27
2023-04-18T15:31:02.411Z,9.29
2023-04-18T15:33:30.819Z,9.29
2023-04-18T15:35:58.662Z,9.29
2023-04-18T15:38:26.370Z,9.29
2023-04-18T15:40:54.505Z,9.29
2023-04-18T15:43:22.371Z,9.29
2023-04-18T15:45:51.134Z,9.30
2023-04-18T15:48:19.573Z,9.30
2023-04-18T15:50:50.913Z,9.34
2023-04-18T15:53:18.945Z,9.36
2023-04-18T15:55:47.017Z,9.33
2023-04-18T15:58:14.788Z,9.32
2023-04-18T16:00:44.418Z,9.32
2023-04-18T16:03:12.468Z,9.33
2023-04-18T16:05:40.693Z,9.33
2023-04-18T16:08:09.512Z,9.34
2023-04-18T16:10:37.675Z,9.35
2023-04-18T16:13:06.819Z,9.37
2023-04-18T16:15:42.001Z,9.37
2023-04-18T16:18:10.868Z,9.36
2023-04-18T16:20:38.627Z,9.36
2023-04-18T16:23:06.398Z,9.37
2023-04-18T16:25:34.481Z,9.37
2023-04-18T16:28:02.449Z,9.36
2023-04-18T16:30:30.693Z,9.38
2023-04-18T16:32:58.711Z,9.39
2023-04-18T16:35:26.773Z,9.39
2023-04-18T16:37:54.626Z,9.40
2023-04-18T16:40:22.479Z,9.40
2023-04-18T16:42:50.241Z,9.40
2023-04-18T16:45:18.127Z,9.41
2023-04-18T16:47:46.006Z,9.42
2023-04-18T16:50:13.920Z,9.44
2023-04-18T16:52:41.946Z,9.47
2023-04-18T16:55:09.770Z,9.48
2023-04-18T16:57:37.755Z,9.48
2023-04-18T17:00:06.759Z,9.49
2023-04-18T17:02:35.342Z,9.49
2023-04-18T17:05:03.411Z,9.49
2023-04-18T17:07:31.991Z,9.49
2023-04-18T17:09:59.865Z,9.52
2023-04-18T17:12:27.853Z,9.56
2023-04-18T17:14:55.962Z,9.61
2023-04-18T17:17:24.093Z,9.65
2023-04-18T17:19:51.997Z,9.68
2023-04-18T17:22:19.795Z,9.69
2023-04-18T17:24:47.508Z,9.72
2023-04-18T17:27:15.319Z,9.74
2023-04-18T17:29:43.280Z,9.74
2023-04-18T17:32:11.234Z,9.74
2023-04-18T17:34:39.671Z,9.72
2023-04-18T17:37:07.488Z,9.72
2023-04-18T17:39:35.912Z,9.75
2023-04-18T17:42:03.603Z,9.78
2023-04-18T17:44:31.579Z,9.75
2023-04-18T17:47:00.966Z,9.72
2023-04-18T17:49:34.486Z,9.73
2023-04-18T17:52:02.815Z,9.72
2023-04-18T17:54:30.653Z,9.67
2023-04-18T17:56:58.491Z,9.61
2023-04-18T17:59:26.346Z,9.55
2023-04-18T18:01:54.432Z,9.53
2023-04-18T18:04:24.791Z,9.50
2023-04-18T18:06:57.372Z,9.46
2023-04-18T18:09:25.150Z,9.44
2023-04-18T18:11:55.337Z,9.39
2023-04-18T18:14:24.044Z,9.31
2023-04-18T18:16:51.944Z,9.24
2023-04-18T18:19:20.993Z,9.19
2023-04-18T18:21:48.866Z,9.16
2023-04-18T18:24:18.593Z,9.15
2023-04-18T18:26:46.446Z,9.14
2023-04-18T18:29:14.481Z,9.13
2023-04-18T18:31:42.952Z,9.12
2023-04-18T18:34:10.939Z,9.11
2023-04-18T18:36:39.135Z,9.10
2023-04-18T18:39:06.973Z,9.05
2023-04-18T18:41:35.632Z,8.99
2023-04-18T18:44:03.382Z,8.95
2023-04-18T18:46:31.806Z,8.93
2023-04-18T18:48:59.638Z,8.95
2023-04-18T18:51:27.985Z,8.93
2023-04-18T18:53:57.209Z,8.90
2023-04-18T18:56:24.975Z,8.89
2023-04-18T18:58:53.548Z,8.95
2023-04-18T19:01:21.456Z,8.94
2023-04-18T19:03:49.585Z,8.93
2023-04-18T19:06:17.522Z,8.96
2023-04-18T19:08:45.636Z,8.96
2023-04-18T19:11:13.464Z,8.96
2023-04-18T19:13:41.868Z,8.97
2023-04-18T19:16:09.711Z,8.95
2023-04-18T19:18:37.722Z,8.91
2023-04-18T19:21:05.517Z,8.86
2023-04-18T19:23:33.486Z,8.81
2023-04-18T19:26:01.479Z,8.78
2023-04-18T19:28:29.556Z,8.78
2023-04-18T19:30:57.371Z,8.78
2023-04-18T19:33:25.499Z,8.75
2023-04-18T19:35:53.270Z,8.72
2023-04-18T19:38:21.484Z,8.70
2023-04-18T19:40:49.296Z,8.68
2023-04-18T19:43:17.264Z,8.68
2023-04-18T19:45:45.152Z,8.68
2023-04-18T19:48:13.009Z,8.68
2023-04-18T19:50:41.121Z,8.67
2023-04-18T19:53:08.986Z,8.68
2023-04-18T19:55:38.339Z,8.67
2023-04-18T19:58:06.131Z,8.67
2023-04-18T20:00:34.271Z,8.67
2023-04-18T20:03:02.347Z,8.69
2023-04-18T20:05:30.566Z,8.71
2023-04-18T20:07:58.531Z,8.72
2023-04-18T20:10:26.388Z,8.74
2023-04-18T20:12:54.265Z,8.74
2023-04-18T20:15:22.595Z,8.71
2023-04-18T20:17:50.690Z,8.70
2023-04-18T20:20:18.611Z,8.67
2023-04-18T20:22:47.523Z,8.65
2023-04-18T20:25:15.356Z,8.65
2023-04-18T20:27:43.233Z,8.66
2023-04-18T20:30:11.404Z,8.67
2023-04-18T20:32:39.306Z,8.71
2023-04-18T20:35:08.600Z,8.73
2023-04-18T20:37:36.893Z,8.77
2023-04-18T20:40:08.227Z,8.83
2023-04-18T20:42:37.163Z,8.90
2023-04-18T20:45:05.731Z,8.92
2023-04-18T20:47:34.183Z,8.90
2023-04-18T20:50:02.254Z,8.76
2023-04-18T20:52:30.456Z,8.63
2023-04-18T20:54:58.168Z,8.53
2023-04-18T20:57:26.023Z,8.46
2023-04-18T20:59:53.748Z,8.43
2023-04-18T21:02:21.600Z,8.42
2023-04-18T21:04:50.022Z,8.41
2023-04-18T21:07:18.484Z,8.39
2023-04-18T21:09:46.482Z,8.39
2023-04-18T21:12:14.312Z,8.38
2023-04-18T21:14:42.172Z,8.39
2023-04-18T21:17:10.543Z,8.45
2023-04-18T21:19:39.033Z,8.52
2023-04-18T21:22:06.774Z,8.56
2023-04-18T21:24:34.561Z,8.59
2023-04-18T21:27:02.557Z,8.62
2023-04-18T21:29:31.091Z,8.58
2023-04-18T21:31:58.942Z,8.59
2023-04-18T21:34:27.006Z,8.62
2023-04-18T21:36:55.147Z,8.64
2023-04-18T21:39:22.870Z,8.66
2023-04-18T21:41:50.882Z,8.67
2023-04-18T21:44:19.196Z,8.64
2023-04-18T21:46:47.072Z,8.61
2023-04-18T21:49:15.380Z,8.48
2023-04-18T21:51:43.453Z,8.39
2023-04-18T21:54:11.241Z,8.40
2023-04-18T21:56:39.063Z,8.50
2023-04-18T21:59:06.915Z,8.60
2023-04-18T22:01:34.904Z,8.68
2023-04-18T22:04:03.206Z,8.68
2023-04-18T22:06:32.413Z,8.60
2023-04-18T22:09:01.031Z,8.50
2023-04-18T22:11:29.033Z,8.40
2023-04-18T22:13:58.175Z,8.36
2023-04-18T22:16:26.121Z,8.35
2023-04-18T22:18:54.075Z,8.36
2023-04-18T22:21:22.098Z,8.32
2023-04-18T22:23:49.814Z,8.29
2023-04-18T22:26:17.616Z,8.28
2023-04-18T22:28:45.538Z,8.32
2023-04-18T22:31:13.462Z,8.40
2023-04-18T22:33:41.328Z,8.45
2023-04-18T22:36:10.060Z,8.46
2023-04-18T22:38:38.181Z,8.43
2023-04-18T22:41:06.273Z,8.41
2023-04-18T22:43:34.782Z,8.43
2023-04-18T22:46:02.606Z,8.43
2023-04-18T22:48:31.278Z,8.47
2023-04-18T22:51:01.711Z,8.51
2023-04-18T22:53:29.581Z,8.54
2023-04-18T22:55:57.443Z,8.55
2023-04-18T22:58:25.326Z,8.57
2023-04-18T23:00:53.095Z,8.58
2023-04-18T23:03:21.108Z,8.61
2023-04-18T23:05:49.016Z,8.65
2023-04-18T23:08:18.763Z,8.73
2023-04-18T23:10:46.490Z,8.77
2023-04-18T23:13:14.679Z,8.81
2023-04-18T23:15:42.619Z,8.82
2023-04-18T23:18:10.693Z,8.83
2023-04-18T23:20:38.661Z,8.89
2023-04-18T23:23:06.870Z,8.94
2023-04-18T23:25:35.066Z,8.98
2023-04-18T23:28:02.808Z,8.99
2023-04-18T23:30:31.261Z,8.98
2023-04-18T23:32:59.758Z,9.02
2023-04-18T23:35:27.596Z,9.05
2023-04-18T23:37:57.181Z,9.10
2023-04-18T23:40:25.453Z,9.15
2023-04-18T23:42:53.176Z,9.15
2023-04-18T23:45:21.176Z,9.22
2023-04-18T23:47:49.191Z,9.25
2023-04-18T23:50:17.491Z,9.27
2023-04-18T23:52:45.572Z,9.27
2023-04-18T23:55:13.336Z,9.27
2023-04-18T23:57:41.123Z,9.31
